Portada
METAR-TAF:

METAR-TAF

Aeropuertos :

Aeropuerto Internacional de N'Djili

Kinsasa, Congo

latitud: 04-23S, longitud: 015-26E, altitud: 309 m

Observación

El informe se hizo hace 50 minutos, a las 02:00 UTC
Viento 4 kt del suroeste
Temperatura 21°C
Humedad 88%
Presión 1016 hPa
Visibilidad: 6000 m
Nubes dispersas a una altura de 1400 ft

METAR: FZAA 210200Z 22004KT 6000 SCT014 21/19 Q1016 NOSIG

Hora: 03:50 (02:50 UTC)

Pronóstico

El informe se hizo hace 3 horas y 50 minutos, a las 23:00 UTC
Pronóstico válido del 21 a las 00 UTC al 22 a las 06 UTC
Viento 4 kt del sur-suroeste
Visibilidad: 6000 m
Cielo nuboso a una altura de 1400 ft
Evolucionando progresivamente
del 21 a las 03 UTC al 21 a las 05 UTC
Visibilidad: 3000 m
neblina
A partir de las 21 a las 1000 UTC
Viento 10 kt del noroeste
Visibilidad: 6000 m
Nubes dispersas a una altura de 2000 ft

TAF: FZAA 202300Z 2100/2206 20004KT 6000 BKN014 BECMG 2103/2105 3000 BR FM211000 32010KT 6000 NSW SCT020

Observaciones y pronósticos meteorológicos de más de 4000 aeropuertos (mensajes METAR y TAF).

Los puntos amarillos y rojos representan las estaciones disponibles.

Ponga el ratón en el punto deseado para ver el nombre de la estación.

Haga clic para ver las observaciones y los pronósticos meteorológicos.

Para cambiar el mapa : haga clic en los botones verdes con una cruz de color negro para hacer un zoom, en el botón verde con un guión para alejar o en las flechas verdes para mapas adyacentes.


METAR-TAF: